createdAt,value
2019-01-05T00:00:41.511Z,16.25
2019-01-05T00:03:17.624Z,17.32
2019-01-05T00:05:56.827Z,16.85
2019-01-05T00:08:42.060Z,16.57
2019-01-05T00:11:15.236Z,17.77
2019-01-05T00:13:51.514Z,17.67
2019-01-05T00:16:32.055Z,17.82
2019-01-05T00:19:06.632Z,18.12
2019-01-05T00:21:38.095Z,18.10
2019-01-05T00:24:25.098Z,18.60
2019-01-05T00:26:58.627Z,18.23
2019-01-05T00:29:29.108Z,19.20
2019-01-05T00:32:28.284Z,19.50
2019-01-05T00:35:08.241Z,17.75
2019-01-05T00:37:42.235Z,18.10
2019-01-05T00:40:31.648Z,18.17
2019-01-05T00:43:18.954Z,18.93
2019-01-05T00:45:59.091Z,18.92
2019-01-05T00:48:30.891Z,18.02
2019-01-05T00:51:19.408Z,19.37
2019-01-05T00:54:05.372Z,18.82
2019-01-05T00:56:42.259Z,18.27
2019-01-05T00:59:13.456Z,18.65
2019-01-05T01:01:50.064Z,19.02
2019-01-05T01:04:26.356Z,20.25
2019-01-05T01:06:56.720Z,20.02
2019-01-05T01:09:43.415Z,19.45
2019-01-05T01:12:13.784Z,19.25
2019-01-05T01:14:44.188Z,20.40
2019-01-05T01:17:17.313Z,21.00
2019-01-05T01:19:50.804Z,20.00
2019-01-05T01:22:24.683Z,21.33
2019-01-05T01:24:55.471Z,22.25
2019-01-05T01:27:42.692Z,21.65
2019-01-05T01:30:28.212Z,23.07
2019-01-05T01:32:58.979Z,22.85
2019-01-05T01:35:35.592Z,22.87
2019-01-05T01:38:14.476Z,21.73
2019-01-05T01:40:47.599Z,22.65
2019-01-05T01:43:20.908Z,23.15
2019-01-05T01:46:08.728Z,22.80
2019-01-05T01:48:45.029Z,21.82
2019-01-05T01:51:15.725Z,22.02
2019-01-05T01:53:49.367Z,21.57
2019-01-05T01:56:22.739Z,22.13
2019-01-05T01:58:53.004Z,21.52
2019-01-05T02:01:26.247Z,21.68
2019-01-05T02:03:59.685Z,22.60
2019-01-05T02:06:34.762Z,22.37
2019-01-05T02:09:06.831Z,23.05
2019-01-05T02:11:40.177Z,22.87
2019-01-05T02:14:11.371Z,21.82
2019-01-05T02:16:56.739Z,23.07
2019-01-05T02:19:32.558Z,22.93
2019-01-05T02:22:23.940Z,23.25
2019-01-05T02:25:16.503Z,23.15
2019-01-05T02:27:58.603Z,22.05
2019-01-05T02:30:31.937Z,22.25
2019-01-05T02:33:27.254Z,21.55
2019-01-05T02:36:17.376Z,19.98
2019-01-05T02:39:02.624Z,21.35
2019-01-05T02:41:58.501Z,21.73
2019-01-05T02:45:00.187Z,20.17
2019-01-05T02:48:18.819Z,19.98
2019-01-05T02:51:08.920Z,19.87
2019-01-05T02:54:00.216Z,20.48
2019-01-05T02:56:53.327Z,18.47
2019-01-05T02:59:38.612Z,19.15
2019-01-05T03:02:52.045Z,19.67
2019-01-05T03:06:04.024Z,19.40
2019-01-05T03:08:53.935Z,18.75
2019-01-05T03:15:14.727Z,17.95
2019-01-05T03:17:56.689Z,19.37
2019-01-05T03:20:56.792Z,19.07
2019-01-05T03:23:57.196Z,18.45
2019-01-05T03:27:03.814Z,19.15
2019-01-05T03:30:02.815Z,18.75
2019-01-05T03:32:57.497Z,18.48
2019-01-05T03:36:09.949Z,18.80
2019-01-05T03:38:58.492Z,19.60
2019-01-05T03:41:31.794Z,19.12
2019-01-05T03:44:38.312Z,18.82
2019-01-05T03:47:32.304Z,18.98
2019-01-05T03:50:14.070Z,19.35
2019-01-05T03:53:08.408Z,18.65
2019-01-05T03:56:10.825Z,19.42
2019-01-05T03:58:55.809Z,18.77
2019-01-05T04:01:54.943Z,19.12
2019-01-05T04:04:48.894Z,20.40
2019-01-05T04:07:37.382Z,19.87
2019-01-05T04:10:33.111Z,19.62
2019-01-05T04:13:35.472Z,21.80
2019-01-05T04:16:32.948Z,21.97
2019-01-05T04:19:47.125Z,21.90
2019-01-05T04:23:08.845Z,22.32
2019-01-05T04:25:57.288Z,22.37
2019-01-05T04:28:54.704Z,23.00
2019-01-05T04:31:50.084Z,22.60
2019-01-05T04:34:53.628Z,21.95
2019-01-05T04:37:58.860Z,23.07
2019-01-05T04:40:53.288Z,22.52
2019-01-05T04:43:41.563Z,22.77
2019-01-05T04:46:45.391Z,23.15
2019-01-05T04:49:36.816Z,22.82
2019-01-05T04:52:48.371Z,22.17
2019-01-05T04:55:56.780Z,22.48
2019-01-05T04:58:47.508Z,21.30
2019-01-05T05:01:56.695Z,22.80
2019-01-05T05:04:38.843Z,23.30
2019-01-05T05:07:53.055Z,23.67
2019-01-05T05:14:20.637Z,21.82
2019-01-05T05:17:05.834Z,22.07
2019-01-05T05:20:11.157Z,22.13
2019-01-05T05:23:02.412Z,22.42
2019-01-05T05:26:09.304Z,23.45
2019-01-05T05:29:16.036Z,23.40
2019-01-05T05:32:14.635Z,24.32
2019-01-05T05:35:04.399Z,23.85
2019-01-05T05:38:14.252Z,24.60
2019-01-05T05:41:13.403Z,25.43
2019-01-05T05:44:11.900Z,25.20
2019-01-05T05:47:06.166Z,26.50
2019-01-05T05:50:27.743Z,26.80
2019-01-05T05:53:52.240Z,27.02
2019-01-05T05:57:01.739Z,25.57
2019-01-05T06:00:16.819Z,26.40
2019-01-05T06:03:27.331Z,26.90
2019-01-05T06:06:16.755Z,27.73
2019-01-05T06:09:18.639Z,26.00
2019-01-05T06:12:22.205Z,27.32
2019-01-05T06:15:11.932Z,28.07
2019-01-05T06:17:53.846Z,29.65
2019-01-05T06:21:00.327Z,28.00
2019-01-05T06:24:25.791Z,27.87
2019-01-05T06:27:34.083Z,28.65
2019-01-05T06:30:31.600Z,29.15
2019-01-05T06:33:52.056Z,27.93
2019-01-05T06:36:31.159Z,27.93
2019-01-05T06:39:33.142Z,27.40
2019-01-05T06:42:21.072Z,26.60
2019-01-05T06:45:36.108Z,28.73
2019-01-05T06:48:41.303Z,28.95
2019-01-05T06:51:29.596Z,26.65
2019-01-05T06:54:25.807Z,25.45
2019-01-05T06:57:32.120Z,26.05
2019-01-05T07:00:31.068Z,26.33
2019-01-05T07:03:40.272Z,26.00
2019-01-05T07:06:34.511Z,24.13
2019-01-05T07:09:39.456Z,23.80
2019-01-05T07:12:39.696Z,23.35
2019-01-05T07:15:55.716Z,25.00
2019-01-05T07:19:13.039Z,23.77
2019-01-05T07:22:04.489Z,24.12
2019-01-05T07:25:09.595Z,23.05
2019-01-05T07:27:48.660Z,23.20
2019-01-05T07:31:01.332Z,23.05
2019-01-05T07:33:46.551Z,21.60
2019-01-05T07:36:45.204Z,21.93
2019-01-05T07:39:45.645Z,20.75
2019-01-05T07:42:27.687Z,21.70
2019-01-05T07:45:25.162Z,21.07
2019-01-05T07:48:26.681Z,20.65
2019-01-05T07:51:28.751Z,19.77
2019-01-05T07:54:21.792Z,19.73
2019-01-05T07:57:25.674Z,19.80
2019-01-05T08:00:23.727Z,20.03
2019-01-05T08:03:24.851Z,21.10
2019-01-05T08:06:40.616Z,20.68
2019-01-05T08:09:37.303Z,19.70
2019-01-05T08:12:53.185Z,19.82
2019-01-05T08:15:54.609Z,18.25
2019-01-05T08:19:07.116Z,18.57
2019-01-05T08:22:06.285Z,18.80
2019-01-05T08:24:48.399Z,19.32
2019-01-05T08:27:33.779Z,18.98
2019-01-05T08:30:38.136Z,19.25
2019-01-05T08:33:29.193Z,19.12
2019-01-05T08:36:18.985Z,18.62
2019-01-05T08:39:24.144Z,18.12
2019-01-05T08:42:21.599Z,18.15
2019-01-05T08:45:29.984Z,17.32
2019-01-05T08:48:45.955Z,18.20
2019-01-05T08:51:28.048Z,16.65
2019-01-05T08:54:14.858Z,15.60
2019-01-05T08:57:10.722Z,15.58
2019-01-05T09:00:09.168Z,15.53
2019-01-05T09:03:00.559Z,15.28
2019-01-05T09:06:07.548Z,13.88
2019-01-05T09:08:49.117Z,13.75
2019-01-05T09:11:37.724Z,14.33
2019-01-05T09:14:39.206Z,13.53
2019-01-05T09:17:44.447Z,13.80
2019-01-05T09:20:54.582Z,13.65
2019-01-05T09:24:11.107Z,13.53
2019-01-05T09:27:20.604Z,14.03
2019-01-05T09:30:31.575Z,12.90
2019-01-05T09:33:31.441Z,13.03
2019-01-05T09:36:33.012Z,13.13
2019-01-05T09:39:27.227Z,13.68
2019-01-05T09:42:03.162Z,13.05
2019-01-05T09:45:04.668Z,12.18
2019-01-05T09:48:13.103Z,13.10
2019-01-05T09:51:04.196Z,14.70
2019-01-05T09:54:04.535Z,13.15
2019-01-05T09:56:57.126Z,12.30
2019-01-05T09:59:51.498Z,12.35
2019-01-05T10:03:11.976Z,11.80
2019-01-05T10:06:13.333Z,10.85
2019-01-05T10:09:05.297Z,11.28
2019-01-05T10:11:47.858Z,9.90
2019-01-05T10:14:50.932Z,9.93
2019-01-05T10:17:50.691Z,8.98
2019-01-05T10:21:12.133Z,8.63
2019-01-05T10:24:35.195Z,7.92
2019-01-05T10:27:39.707Z,7.83
2019-01-05T10:30:18.975Z,7.55
2019-01-05T10:33:28.743Z,7.05
2019-01-05T10:36:35.081Z,7.55
2019-01-05T10:39:26.321Z,6.33
2019-01-05T10:42:38.615Z,6.33
2019-01-05T10:45:40.676Z,5.95
2019-01-05T10:48:32.008Z,5.20
2019-01-05T10:51:20.168Z,4.97
2019-01-05T10:54:02.043Z,4.60
2019-01-05T10:56:53.476Z,4.10
2019-01-05T10:59:50.868Z,4.10
2019-01-05T11:02:43.178Z,4.37
2019-01-05T11:05:50.955Z,5.03
2019-01-05T11:09:05.203Z,4.40
2019-01-05T11:12:10.565Z,4.72
2019-01-05T11:15:16.920Z,4.30
2019-01-05T11:18:17.279Z,4.40
2019-01-05T11:21:08.756Z,4.53
2019-01-05T11:24:19.268Z,4.90
2019-01-05T11:27:24.331Z,4.50
2019-01-05T11:30:12.733Z,4.60
2019-01-05T11:32:54.797Z,4.70
2019-01-05T11:36:11.645Z,4.50
2019-01-05T11:39:09.041Z,4.55
2019-01-05T11:42:03.239Z,4.55
2019-01-05T11:45:02.171Z,4.60
2019-01-05T11:48:05.819Z,4.40
2019-01-05T11:50:44.955Z,4.70
2019-01-05T11:54:00.722Z,4.28
2019-01-05T11:56:56.986Z,4.00
2019-01-05T11:59:39.328Z,4.20
2019-01-05T12:02:47.139Z,4.23
2019-01-05T12:05:23.189Z,3.98
2019-01-05T12:08:20.724Z,4.00
2019-01-05T12:11:12.133Z,4.28
2019-01-05T12:14:22.993Z,4.30
2019-01-05T12:17:41.676Z,3.85
2019-01-05T12:20:32.628Z,3.90
2019-01-05T12:23:41.799Z,4.17
2019-01-05T12:26:51.372Z,4.25
2019-01-05T12:29:57.628Z,4.30
2019-01-05T12:32:33.696Z,4.25
2019-01-05T12:35:33.549Z,4.00
2019-01-05T12:38:27.906Z,4.45
2019-01-05T12:41:36.944Z,4.10
2019-01-05T12:44:31.505Z,3.90
2019-01-05T12:47:13.733Z,4.22
2019-01-05T12:50:03.606Z,3.92
2019-01-05T12:52:49.060Z,4.17
2019-01-05T12:55:38.903Z,4.30
2019-01-05T12:58:37.940Z,3.80
2019-01-05T13:01:29.292Z,3.80
2019-01-05T13:04:19.170Z,3.92
2019-01-05T13:07:19.472Z,3.62
2019-01-05T13:10:10.356Z,3.90
2019-01-05T13:13:10.776Z,3.72
2019-01-05T13:15:56.094Z,3.92
2019-01-05T13:19:09.023Z,3.90
2019-01-05T13:22:14.752Z,3.45
2019-01-05T13:25:10.755Z,3.47
2019-01-05T13:28:35.262Z,2.80
2019-01-05T13:31:42.682Z,2.90
2019-01-05T13:34:40.916Z,3.08
2019-01-05T13:37:49.163Z,2.80
2019-01-05T13:40:37.328Z,2.90
2019-01-05T13:43:46.350Z,3.10
2019-01-05T13:46:37.632Z,2.92
2019-01-05T13:49:36.304Z,4.20
2019-01-05T13:52:33.952Z,3.10
2019-01-05T13:55:22.396Z,3.20
2019-01-05T13:58:04.755Z,2.90
2019-01-05T14:00:38.256Z,3.12
2019-01-05T14:03:17.668Z,2.85
2019-01-05T14:05:54.061Z,3.10
2019-01-05T14:08:27.643Z,2.87
2019-01-05T14:10:58.039Z,3.27
2019-01-05T14:13:37.451Z,3.35
2019-01-05T14:16:24.413Z,3.35
2019-01-05T14:19:10.808Z,3.05
2019-01-05T14:21:44.023Z,3.12
2019-01-05T14:24:14.415Z,3.40
2019-01-05T14:26:50.853Z,2.92
2019-01-05T14:29:21.243Z,2.90
2019-01-05T14:32:08.137Z,2.95
2019-01-05T14:34:38.527Z,3.15
2019-01-05T14:37:14.911Z,3.30
2019-01-05T14:39:56.972Z,3.25
2019-01-05T14:42:43.815Z,3.98
2019-01-05T14:45:30.570Z,4.17
2019-01-05T14:48:07.120Z,3.30
2019-01-05T14:50:56.885Z,3.35
2019-01-05T14:53:50.821Z,3.72
2019-01-05T14:57:03.420Z,3.05
2019-01-05T14:59:38.526Z,3.50
2019-01-05T15:05:22.898Z,3.27
2019-01-05T15:08:09.248Z,3.20
2019-01-05T15:11:11.626Z,3.60
2019-01-05T15:13:39.551Z,3.08
2019-01-05T15:16:09.924Z,3.20
2019-01-05T15:18:43.688Z,3.30
2019-01-05T15:21:14.197Z,3.15
2019-01-05T15:23:47.752Z,2.67
2019-01-05T15:26:35.431Z,2.75
2019-01-05T15:29:20.967Z,2.70
2019-01-05T15:31:57.060Z,3.35
2019-01-05T15:34:44.140Z,3.10
2019-01-05T15:40:15.598Z,2.77
2019-01-05T15:42:51.468Z,2.87
2019-01-05T15:45:22.866Z,2.90
2019-01-05T15:48:10.049Z,3.08
2019-01-05T15:50:44.189Z,3.10
2019-01-05T15:53:18.001Z,2.90
2019-01-05T15:56:04.104Z,3.22
2019-01-05T15:58:49.575Z,3.10
2019-01-05T16:01:20.594Z,3.20
2019-01-05T16:04:07.592Z,3.40
2019-01-05T16:06:54.643Z,3.60
2019-01-05T16:09:27.791Z,3.70
2019-01-05T16:12:14.437Z,3.62
2019-01-05T16:14:47.554Z,3.30
2019-01-05T16:17:23.995Z,3.60
2019-01-05T16:19:54.460Z,3.70
2019-01-05T16:22:33.751Z,3.33
2019-01-05T16:25:16.365Z,3.30
2019-01-05T16:27:58.481Z,3.35
2019-01-05T16:30:31.520Z,3.50
2019-01-05T16:33:07.704Z,3.55
2019-01-05T16:35:54.103Z,3.45
2019-01-05T16:38:24.496Z,3.70
2019-01-05T16:40:54.860Z,3.42
2019-01-05T16:43:41.873Z,3.60
2019-01-05T16:46:15.388Z,3.10
2019-01-05T16:48:52.236Z,3.20
2019-01-05T16:51:39.096Z,3.45
2019-01-05T16:54:09.488Z,3.10
2019-01-05T16:56:39.852Z,3.12
2019-01-05T16:59:10.249Z,3.72
2019-01-05T17:01:59.836Z,3.20
2019-01-05T17:04:32.747Z,3.40
2019-01-05T17:07:03.523Z,3.50
2019-01-05T17:09:36.912Z,3.15
2019-01-05T17:12:07.292Z,3.27
2019-01-05T17:14:55.806Z,3.30
2019-01-05T17:17:42.570Z,3.62
2019-01-05T17:20:18.860Z,3.83
2019-01-05T17:22:55.261Z,3.63
2019-01-05T17:25:30.085Z,3.80
2019-01-05T17:28:22.225Z,4.28
2019-01-05T17:31:08.241Z,4.17
2019-01-05T17:33:38.728Z,3.70
2019-01-05T17:36:20.649Z,3.60
2019-01-05T17:39:12.135Z,3.75
2019-01-05T17:42:00.706Z,6.53
2019-01-05T17:44:47.547Z,3.60
2019-01-05T17:47:39.825Z,3.50
2019-01-05T17:50:21.126Z,3.65
2019-01-05T17:53:06.471Z,3.90
2019-01-05T17:55:53.222Z,4.35
2019-01-05T17:58:23.752Z,4.20
2019-01-05T18:01:10.363Z,3.83
2019-01-05T18:03:59.005Z,3.77
2019-01-05T18:06:38.193Z,3.98
2019-01-05T18:09:11.312Z,4.20
2019-01-05T18:11:41.678Z,4.37
2019-01-05T18:14:18.316Z,4.03
2019-01-05T18:16:51.430Z,4.60
2019-01-05T18:19:21.891Z,4.50
2019-01-05T18:21:52.294Z,4.50
2019-01-05T18:24:34.983Z,4.37
2019-01-05T18:27:14.389Z,4.75
2019-01-05T18:29:53.486Z,5.10
2019-01-05T18:32:47.253Z,4.40
2019-01-05T18:35:17.632Z,4.40
2019-01-05T18:37:57.064Z,4.42
2019-01-05T18:40:33.776Z,4.60
2019-01-05T18:43:06.015Z,4.72
2019-01-05T18:45:57.984Z,4.55
2019-01-05T18:48:31.040Z,4.17
2019-01-05T18:51:13.678Z,4.67
2019-01-05T18:54:00.590Z,4.20
2019-01-05T18:56:47.773Z,4.58
2019-01-05T18:59:23.951Z,4.72
2019-01-05T19:02:06.287Z,4.40
2019-01-05T19:04:37.786Z,4.42
2019-01-05T19:07:17.144Z,4.55
2019-01-05T19:09:47.504Z,4.08
2019-01-05T19:12:28.785Z,3.67
2019-01-05T19:15:01.241Z,3.98
2019-01-05T19:17:31.698Z,4.40
2019-01-05T19:20:14.700Z,4.58
2019-01-05T19:23:03.491Z,4.40
2019-01-05T19:25:33.934Z,4.50
2019-01-05T19:28:09.883Z,5.40
2019-01-05T19:30:40.245Z,5.70
2019-01-05T19:33:19.339Z,6.00
2019-01-05T19:35:49.703Z,5.40
2019-01-05T19:38:37.863Z,6.33
2019-01-05T19:41:17.249Z,6.50
2019-01-05T19:43:50.463Z,4.85
2019-01-05T19:46:33.155Z,4.95
2019-01-05T19:49:21.116Z,4.55
2019-01-05T19:51:54.798Z,6.55
2019-01-05T19:54:41.672Z,6.17
2019-01-05T19:57:27.160Z,5.55
2019-01-05T20:00:13.784Z,4.95
2019-01-05T20:03:00.335Z,5.28
2019-01-05T20:05:48.124Z,4.78
2019-01-05T20:08:27.695Z,4.90
2019-01-05T20:10:59.215Z,4.90
2019-01-05T20:13:35.828Z,4.65
2019-01-05T20:16:06.224Z,5.37
2019-01-05T20:18:39.643Z,4.72
2019-01-05T20:21:22.912Z,4.40
2019-01-05T20:24:11.413Z,4.33
2019-01-05T20:26:58.283Z,5.12
2019-01-05T20:29:44.138Z,4.47
2019-01-05T20:32:17.411Z,4.80
2019-01-05T20:34:49.500Z,4.85
2019-01-05T20:37:20.224Z,4.53
2019-01-05T20:39:50.579Z,4.40
2019-01-05T20:42:27.162Z,4.47
2019-01-05T20:45:01.574Z,4.67
2019-01-05T20:47:51.468Z,5.13
2019-01-05T20:50:35.216Z,4.78
2019-01-05T20:53:31.485Z,4.30
2019-01-05T20:56:20.111Z,4.62
2019-01-05T20:58:50.603Z,4.60
2019-01-05T21:01:34.071Z,4.60
2019-01-05T21:04:21.701Z,4.62
2019-01-05T21:06:56.777Z,4.78
2019-01-05T21:09:36.029Z,4.90
2019-01-05T21:12:29.202Z,4.78
2019-01-05T21:15:16.608Z,4.65
2019-01-05T21:17:49.739Z,4.60
2019-01-05T21:20:36.065Z,4.80
2019-01-05T21:23:15.224Z,4.90
2019-01-05T21:25:54.687Z,5.10
2019-01-05T21:28:34.032Z,4.80
2019-01-05T21:31:13.423Z,4.60
2019-01-05T21:33:58.850Z,4.65
2019-01-05T21:36:45.628Z,5.20
2019-01-05T21:39:32.387Z,5.10
2019-01-05T21:42:19.225Z,4.80
2019-01-05T21:44:58.579Z,4.60
2019-01-05T21:47:31.555Z,4.83
2019-01-05T21:50:08.039Z,4.65
2019-01-05T21:52:56.783Z,4.50
2019-01-05T21:55:44.440Z,4.42
2019-01-05T21:58:14.770Z,4.55
2019-01-05T22:00:48.148Z,5.42
2019-01-05T22:03:27.825Z,5.05
2019-01-05T22:05:58.499Z,4.90
2019-01-05T22:08:28.880Z,5.00
2019-01-05T22:10:59.254Z,4.92
2019-01-05T22:13:45.935Z,5.72
2019-01-05T22:16:28.527Z,5.03
2019-01-05T22:19:14.267Z,5.12
2019-01-05T22:21:50.256Z,4.85
2019-01-05T22:24:20.656Z,4.83
2019-01-05T22:27:00.174Z,4.83
2019-01-05T22:29:36.555Z,4.87
2019-01-05T22:32:23.136Z,4.90
2019-01-05T22:35:08.888Z,5.83
2019-01-05T22:37:54.425Z,4.20
2019-01-05T22:40:41.317Z,4.83
2019-01-05T22:43:20.696Z,4.70
2019-01-05T22:46:07.539Z,5.00
2019-01-05T22:48:54.283Z,4.40
2019-01-05T22:51:41.025Z,5.17
2019-01-05T22:54:27.712Z,5.17
2019-01-05T22:57:14.680Z,4.35
2019-01-05T22:59:47.770Z,4.05
2019-01-05T23:02:18.163Z,4.10
2019-01-05T23:05:00.649Z,4.00
2019-01-05T23:07:47.311Z,4.22
2019-01-05T23:10:20.804Z,4.40
2019-01-05T23:12:51.199Z,4.05
2019-01-05T23:15:21.572Z,4.60
2019-01-05T23:18:07.164Z,4.17
2019-01-05T23:20:53.809Z,4.20
2019-01-05T23:23:27.063Z,4.00
2019-01-05T23:26:09.115Z,4.20
2019-01-05T23:28:57.826Z,4.35
2019-01-05T23:31:28.190Z,4.42
2019-01-05T23:34:15.068Z,4.75
2019-01-05T23:36:57.427Z,4.60
2019-01-05T23:39:31.050Z,4.50
2019-01-05T23:42:17.933Z,4.35
2019-01-05T23:44:51.336Z,4.17
2019-01-05T23:47:21.700Z,4.40
2019-01-05T23:49:52.094Z,4.67
2019-01-05T23:52:25.156Z,4.30
2019-01-05T23:54:55.652Z,3.85
2019-01-05T23:57:44.627Z,4.10
